This demonstration page uses our WeatherBlox Daily Observations layout. Learn more.

Left ArrowRight Arrow

41.55636, -103.73856

Hourly Observations for May 12, 2021

Temp ( °F °C ) Dew Point ( °F °C ) Humidity (%) Winds ( mph kmh ) Pressure ( in mb ) Visibility ( mi km ) Precip ( " mm )
12:58 am 00:58 Clear 37 2.7 35 1.5 92 92 S 7 11 30.39 1029 10 16.0934 N/A
1:58 am 01:58 Clear 39 3.7 36 2.3 91 91 SSW 17 28 30.3 1026 10 16.0934 N/A
2:58 am 02:58 Clear 38 3.4 36 2 91 91 SSW 13 20 30.32 1027 10 16.0934 N/A
3:58 am 03:58 Mostly Clear 37 2.5 34 1.3 92 92 NNW 3 6 30.31 1027 10 16.0934 N/A
4:58 am 04:58 Clear 36 2 33 0.4 89 89 N N/A 30.32 1027 10 16.0934 N/A
5:58 am 05:58 Partly Cloudy 36 2 33 0.6 91 91 N N/A 30.32 1027 10 16.0934 N/A
6:58 am 06:58 Mostly Sunny 39 3.7 35 1.6 86 86 N N/A 30.32 1027 10 16.0934 N/A
7:58 am 07:58 Sunny 43 6 38 3.3 83 83 SW 13 20 30.31 1027 10 16.0934 N/A
8:58 am 08:58 Mostly Sunny 46 7.6 40 4.3 80 80 SW 18 30 30.3 1026 10 16.0934 N/A
9:58 am 09:58 Sunny 50 10 39 4.1 67 67 SSW 20 31 30.28 1025 10 16.0934 N/A
10:58 am 10:58 Mostly Cloudy 54 12 37 2.6 53 53 SW 14 22 30.26 1025 10 16.0934 N/A
11:58 am 11:58 Partly Cloudy 55 12.6 38 3.4 54 54 SW 13 20 30.25 1024 10 16.0934 N/A
12:58 pm 12:58 Mostly Sunny 56 13.3 37 3 50 50 SSW 12 19 30.23 1024 10 16.0934 N/A
1:58 pm 13:58 Mostly Cloudy 47 8.3 38 3.2 71 71 SW 15 24 30.27 1025 10 16.0934 N/A
2:58 pm 14:58 Partly Cloudy with Light Showers 52 11.2 38 3.2 58 58 SW 6 9 30.23 1024 10 16.0934 0.01 0.254
3:58 pm 15:58 Sunny 57 14 37 2.9 47 47 S 8 13 30.2 1023 10 16.0934 N/A
4:58 pm 16:58 Mostly Sunny 57 13.8 39 4.1 52 52 N N/A 30.2 1023 10 16.0934 N/A
5:58 pm 17:58 Mostly Sunny 58 14.5 38 3.2 47 47 ESE 5 7 30.2 1023 10 16.0934 N/A
6:58 pm 18:58 Sunny 57 13.9 38 3.4 49 49 ESE 5 7 30.17 1022 10 16.0934 N/A
7:58 pm 19:58 Sunny 51 10.6 41 4.8 68 68 SE 13 20 30.19 1023 10 16.0934 N/A
8:58 pm 20:58 Clear 49 9.3 42 5.6 78 78 SSE 20 31 30.24 1024 10 16.0934 N/A
9:58 pm 21:58 Clear 46 7.6 41 5.1 84 84 S 13 20 30.25 1024 10 16.0934 N/A
10:58 pm 22:58 Clear 45 7 40 4.7 85 85 S 16 26 30.24 1024 10 16.0934 N/A
11:58 pm 23:58 Partly Cloudy 45 7 40 4.7 85 85 S 15 24 30.22 1024 10 16.0934 N/A

Powered by AerisWeather